sensor_id;sensor_type;location;lat;lon;timestamp;temperature;humidity
81935;DHT22;71405;47.674;-2.050;2023-07-29T00:01:51;21.50;84.10
81935;DHT22;71405;47.674;-2.050;2023-07-29T00:04:19;21.50;84.10
81935;DHT22;71405;47.674;-2.050;2023-07-29T00:06:45;21.50;84.10
81935;DHT22;71405;47.674;-2.050;2023-07-29T00:09:11;21.50;83.80
81935;DHT22;71405;47.674;-2.050;2023-07-29T00:11:38;21.50;83.90
81935;DHT22;71405;47.674;-2.050;2023-07-29T00:14:03;21.50;83.80
81935;DHT22;71405;47.674;-2.050;2023-07-29T00:16:29;21.50;83.90
81935;DHT22;71405;47.674;-2.050;2023-07-29T00:18:55;21.50;84.10
81935;DHT22;71405;47.674;-2.050;2023-07-29T00:21:20;21.50;83.80
81935;DHT22;71405;47.674;-2.050;2023-07-29T00:23:46;21.50;83.40
81935;DHT22;71405;47.674;-2.050;2023-07-29T00:26:12;21.50;84.00
81935;DHT22;71405;47.674;-2.050;2023-07-29T00:28:37;21.50;84.00
81935;DHT22;71405;47.674;-2.050;2023-07-29T00:31:03;21.50;84.10
81935;DHT22;71405;47.674;-2.050;2023-07-29T00:33:28;21.50;84.10
81935;DHT22;71405;47.674;-2.050;2023-07-29T00:35:54;21.50;84.30
81935;DHT22;71405;47.674;-2.050;2023-07-29T00:38:20;21.50;84.00
81935;DHT22;71405;47.674;-2.050;2023-07-29T00:40:45;21.50;84.20
81935;DHT22;71405;47.674;-2.050;2023-07-29T00:43:11;21.50;83.30
81935;DHT22;71405;47.674;-2.050;2023-07-29T00:45:37;21.50;83.60
81935;DHT22;71405;47.674;-2.050;2023-07-29T00:48:04;21.50;84.00
81935;DHT22;71405;47.674;-2.050;2023-07-29T00:50:31;21.50;84.10
81935;DHT22;71405;47.674;-2.050;2023-07-29T00:52:58;21.50;83.90
81935;DHT22;71405;47.674;-2.050;2023-07-29T00:55:24;21.50;83.30
81935;DHT22;71405;47.674;-2.050;2023-07-29T00:57:51;21.50;84.00
81935;DHT22;71405;47.674;-2.050;2023-07-29T01:00:20;21.50;84.20
81935;DHT22;71405;47.674;-2.050;2023-07-29T01:02:46;21.50;83.60
81935;DHT22;71405;47.674;-2.050;2023-07-29T01:05:13;21.50;83.60
81935;DHT22;71405;47.674;-2.050;2023-07-29T01:10:27;21.50;84.20
81935;DHT22;71405;47.674;-2.050;2023-07-29T01:13:27;21.50;84.30
81935;DHT22;71405;47.674;-2.050;2023-07-29T01:15:55;21.50;84.30
81935;DHT22;71405;47.674;-2.050;2023-07-29T01:18:28;21.50;83.70
81935;DHT22;71405;47.674;-2.050;2023-07-29T01:20:59;21.50;83.80
81935;DHT22;71405;47.674;-2.050;2023-07-29T01:23:32;21.50;83.90
81935;DHT22;71405;47.674;-2.050;2023-07-29T01:25:57;21.50;83.90
81935;DHT22;71405;47.674;-2.050;2023-07-29T01:28:24;21.50;83.90
81935;DHT22;71405;47.674;-2.050;2023-07-29T01:30:52;21.50;83.50
81935;DHT22;71405;47.674;-2.050;2023-07-29T01:33:26;21.50;83.80
81935;DHT22;71405;47.674;-2.050;2023-07-29T01:36:01;21.50;84.30
81935;DHT22;71405;47.674;-2.050;2023-07-29T01:38:30;21.50;84.20
81935;DHT22;71405;47.674;-2.050;2023-07-29T01:41:01;21.50;84.00
81935;DHT22;71405;47.674;-2.050;2023-07-29T01:43:29;21.50;84.30
81935;DHT22;71405;47.674;-2.050;2023-07-29T01:45:55;21.50;83.20
81935;DHT22;71405;47.674;-2.050;2023-07-29T01:48:21;21.50;83.60
81935;DHT22;71405;47.674;-2.050;2023-07-29T01:50:47;21.50;83.90
81935;DHT22;71405;47.674;-2.050;2023-07-29T01:53:12;21.50;84.20
81935;DHT22;71405;47.674;-2.050;2023-07-29T01:55:39;21.50;84.30
81935;DHT22;71405;47.674;-2.050;2023-07-29T01:58:05;21.50;83.80
81935;DHT22;71405;47.674;-2.050;2023-07-29T02:00:30;21.50;84.00
81935;DHT22;71405;47.674;-2.050;2023-07-29T02:02:56;21.50;84.00
81935;DHT22;71405;47.674;-2.050;2023-07-29T02:05:21;21.50;83.70
81935;DHT22;71405;47.674;-2.050;2023-07-29T02:07:47;21.50;84.20
81935;DHT22;71405;47.674;-2.050;2023-07-29T02:10:13;21.50;84.30
81935;DHT22;71405;47.674;-2.050;2023-07-29T02:12:38;21.50;84.20
81935;DHT22;71405;47.674;-2.050;2023-07-29T02:15:05;21.50;84.20
81935;DHT22;71405;47.674;-2.050;2023-07-29T02:17:31;21.50;83.60
81935;DHT22;71405;47.674;-2.050;2023-07-29T02:19:56;21.50;84.30
81935;DHT22;71405;47.674;-2.050;2023-07-29T02:22:22;21.50;84.10
81935;DHT22;71405;47.674;-2.050;2023-07-29T02:24:48;21.50;84.20
81935;DHT22;71405;47.674;-2.050;2023-07-29T02:27:13;21.50;84.30
81935;DHT22;71405;47.674;-2.050;2023-07-29T02:29:39;21.50;81.90
81935;DHT22;71405;47.674;-2.050;2023-07-29T02:32:05;21.50;83.00
81935;DHT22;71405;47.674;-2.050;2023-07-29T02:34:31;21.50;83.70
81935;DHT22;71405;47.674;-2.050;2023-07-29T02:36:56;21.50;84.00
81935;DHT22;71405;47.674;-2.050;2023-07-29T02:39:22;21.50;84.00
81935;DHT22;71405;47.674;-2.050;2023-07-29T02:41:48;21.50;84.20
81935;DHT22;71405;47.674;-2.050;2023-07-29T02:44:14;21.50;84.20
81935;DHT22;71405;47.674;-2.050;2023-07-29T02:46:40;21.50;84.10
81935;DHT22;71405;47.674;-2.050;2023-07-29T02:49:06;21.50;83.90
81935;DHT22;71405;47.674;-2.050;2023-07-29T02:51:31;21.50;84.20
81935;DHT22;71405;47.674;-2.050;2023-07-29T02:53:57;21.50;84.30
81935;DHT22;71405;47.674;-2.050;2023-07-29T02:56:23;21.50;84.00
81935;DHT22;71405;47.674;-2.050;2023-07-29T02:58:49;21.50;84.00
81935;DHT22;71405;47.674;-2.050;2023-07-29T03:01:17;21.50;84.20
81935;DHT22;71405;47.674;-2.050;2023-07-29T03:03:42;21.50;84.50
81935;DHT22;71405;47.674;-2.050;2023-07-29T03:06:10;21.50;84.40
81935;DHT22;71405;47.674;-2.050;2023-07-29T03:08:36;21.50;84.50
81935;DHT22;71405;47.674;-2.050;2023-07-29T03:11:10;21.50;82.80
81935;DHT22;71405;47.674;-2.050;2023-07-29T03:13:36;21.50;83.60
81935;DHT22;71405;47.674;-2.050;2023-07-29T03:16:07;21.50;83.80
81935;DHT22;71405;47.674;-2.050;2023-07-29T03:18:33;21.50;83.90
81935;DHT22;71405;47.674;-2.050;2023-07-29T03:20:59;21.50;84.10
81935;DHT22;71405;47.674;-2.050;2023-07-29T03:23:24;21.50;84.00
81935;DHT22;71405;47.674;-2.050;2023-07-29T03:25:50;21.50;84.20
81935;DHT22;71405;47.674;-2.050;2023-07-29T03:28:23;21.50;82.10
81935;DHT22;71405;47.674;-2.050;2023-07-29T03:30:49;21.50;83.50
81935;DHT22;71405;47.674;-2.050;2023-07-29T03:33:14;21.50;83.30
81935;DHT22;71405;47.674;-2.050;2023-07-29T03:35:40;21.50;83.90
81935;DHT22;71405;47.674;-2.050;2023-07-29T03:38:10;21.50;84.10
81935;DHT22;71405;47.674;-2.050;2023-07-29T03:40:35;21.50;84.30
81935;DHT22;71405;47.674;-2.050;2023-07-29T03:43:01;21.50;84.30
81935;DHT22;71405;47.674;-2.050;2023-07-29T03:45:26;21.50;84.30
81935;DHT22;71405;47.674;-2.050;2023-07-29T03:47:52;21.50;84.10
81935;DHT22;71405;47.674;-2.050;2023-07-29T03:50:18;21.50;84.10
81935;DHT22;71405;47.674;-2.050;2023-07-29T03:52:43;21.50;84.20
81935;DHT22;71405;47.674;-2.050;2023-07-29T03:55:09;21.50;84.30
81935;DHT22;71405;47.674;-2.050;2023-07-29T03:57:35;21.50;84.40
81935;DHT22;71405;47.674;-2.050;2023-07-29T04:00:00;21.50;84.40
81935;DHT22;71405;47.674;-2.050;2023-07-29T04:02:26;21.50;84.30
81935;DHT22;71405;47.674;-2.050;2023-07-29T04:04:52;21.50;84.20
81935;DHT22;71405;47.674;-2.050;2023-07-29T04:07:17;21.50;84.00
81935;DHT22;71405;47.674;-2.050;2023-07-29T04:09:43;21.50;83.80
81935;DHT22;71405;47.674;-2.050;2023-07-29T04:12:09;21.50;84.20
81935;DHT22;71405;47.674;-2.050;2023-07-29T04:14:35;21.50;84.30
81935;DHT22;71405;47.674;-2.050;2023-07-29T04:17:01;21.50;84.40
81935;DHT22;71405;47.674;-2.050;2023-07-29T04:19:26;21.50;84.30
81935;DHT22;71405;47.674;-2.050;2023-07-29T04:21:52;21.50;84.50
81935;DHT22;71405;47.674;-2.050;2023-07-29T04:24:17;21.50;84.20
81935;DHT22;71405;47.674;-2.050;2023-07-29T04:26:45;21.50;84.10
81935;DHT22;71405;47.674;-2.050;2023-07-29T04:29:11;21.40;84.40
81935;DHT22;71405;47.674;-2.050;2023-07-29T04:31:37;21.50;84.60
81935;DHT22;71405;47.674;-2.050;2023-07-29T04:34:04;21.50;84.50
81935;DHT22;71405;47.674;-2.050;2023-07-29T04:36:29;21.40;84.60
81935;DHT22;71405;47.674;-2.050;2023-07-29T04:38:55;21.50;84.40
81935;DHT22;71405;47.674;-2.050;2023-07-29T04:41:21;21.50;84.20
81935;DHT22;71405;47.674;-2.050;2023-07-29T04:43:46;21.40;84.10
81935;DHT22;71405;47.674;-2.050;2023-07-29T04:46:12;21.50;84.50
81935;DHT22;71405;47.674;-2.050;2023-07-29T04:48:38;21.50;84.40
81935;DHT22;71405;47.674;-2.050;2023-07-29T04:51:04;21.50;84.20
81935;DHT22;71405;47.674;-2.050;2023-07-29T04:53:29;21.40;84.40
81935;DHT22;71405;47.674;-2.050;2023-07-29T04:55:55;21.50;84.40
81935;DHT22;71405;47.674;-2.050;2023-07-29T04:58:20;21.40;84.30
81935;DHT22;71405;47.674;-2.050;2023-07-29T05:00:47;21.50;84.40
81935;DHT22;71405;47.674;-2.050;2023-07-29T05:03:12;21.40;84.20
81935;DHT22;71405;47.674;-2.050;2023-07-29T05:05:38;21.50;84.50
81935;DHT22;71405;47.674;-2.050;2023-07-29T05:08:04;21.40;84.40
81935;DHT22;71405;47.674;-2.050;2023-07-29T05:10:29;21.50;84.40
81935;DHT22;71405;47.674;-2.050;2023-07-29T05:12:55;21.40;84.30
81935;DHT22;71405;47.674;-2.050;2023-07-29T05:15:21;21.40;84.40
81935;DHT22;71405;47.674;-2.050;2023-07-29T05:17:46;21.40;84.50
81935;DHT22;71405;47.674;-2.050;2023-07-29T05:20:12;21.40;84.30
81935;DHT22;71405;47.674;-2.050;2023-07-29T05:22:38;21.50;84.30
81935;DHT22;71405;47.674;-2.050;2023-07-29T05:25:03;21.40;84.40
81935;DHT22;71405;47.674;-2.050;2023-07-29T05:27:29;21.40;84.60
81935;DHT22;71405;47.674;-2.050;2023-07-29T05:29:55;21.40;84.40
81935;DHT22;71405;47.674;-2.050;2023-07-29T05:32:21;21.50;84.50
81935;DHT22;71405;47.674;-2.050;2023-07-29T05:34:46;21.50;84.30
81935;DHT22;71405;47.674;-2.050;2023-07-29T05:37:12;21.40;84.60
81935;DHT22;71405;47.674;-2.050;2023-07-29T05:39:38;21.50;84.40
81935;DHT22;71405;47.674;-2.050;2023-07-29T05:42:04;21.40;84.50
81935;DHT22;71405;47.674;-2.050;2023-07-29T05:44:29;21.40;84.70
81935;DHT22;71405;47.674;-2.050;2023-07-29T05:46:58;21.40;84.50
81935;DHT22;71405;47.674;-2.050;2023-07-29T05:49:24;21.40;84.60
81935;DHT22;71405;47.674;-2.050;2023-07-29T05:51:49;21.40;84.60
81935;DHT22;71405;47.674;-2.050;2023-07-29T05:54:18;21.40;84.50
81935;DHT22;71405;47.674;-2.050;2023-07-29T05:56:43;21.50;84.50
81935;DHT22;71405;47.674;-2.050;2023-07-29T05:59:09;21.40;84.60
81935;DHT22;71405;47.674;-2.050;2023-07-29T06:01:35;21.40;84.60
81935;DHT22;71405;47.674;-2.050;2023-07-29T06:04:00;21.40;84.60
81935;DHT22;71405;47.674;-2.050;2023-07-29T06:06:26;21.40;84.40
81935;DHT22;71405;47.674;-2.050;2023-07-29T06:08:52;21.40;84.50
81935;DHT22;71405;47.674;-2.050;2023-07-29T06:11:18;21.40;84.50
81935;DHT22;71405;47.674;-2.050;2023-07-29T06:13:43;21.40;84.40
81935;DHT22;71405;47.674;-2.050;2023-07-29T06:16:09;21.40;84.50
81935;DHT22;71405;47.674;-2.050;2023-07-29T06:18:35;21.40;84.50
81935;DHT22;71405;47.674;-2.050;2023-07-29T06:21:00;21.40;84.60
81935;DHT22;71405;47.674;-2.050;2023-07-29T06:23:26;21.40;84.40
81935;DHT22;71405;47.674;-2.050;2023-07-29T06:25:52;21.40;84.40
81935;DHT22;71405;47.674;-2.050;2023-07-29T06:28:17;21.40;84.40
81935;DHT22;71405;47.674;-2.050;2023-07-29T06:30:43;21.40;84.40
81935;DHT22;71405;47.674;-2.050;2023-07-29T06:33:09;21.40;84.30
81935;DHT22;71405;47.674;-2.050;2023-07-29T06:35:34;21.40;84.60
81935;DHT22;71405;47.674;-2.050;2023-07-29T06:38:00;21.40;84.60
81935;DHT22;71405;47.674;-2.050;2023-07-29T06:40:26;21.40;84.50
81935;DHT22;71405;47.674;-2.050;2023-07-29T06:42:51;21.40;84.50
81935;DHT22;71405;47.674;-2.050;2023-07-29T06:45:17;21.40;84.40
81935;DHT22;71405;47.674;-2.050;2023-07-29T06:47:43;21.40;84.50
81935;DHT22;71405;47.674;-2.050;2023-07-29T06:50:08;21.40;84.60
81935;DHT22;71405;47.674;-2.050;2023-07-29T06:52:34;21.40;84.60
81935;DHT22;71405;47.674;-2.050;2023-07-29T06:55:02;21.40;84.70
81935;DHT22;71405;47.674;-2.050;2023-07-29T06:57:27;21.40;84.60
81935;DHT22;71405;47.674;-2.050;2023-07-29T06:59:53;21.40;84.50
81935;DHT22;71405;47.674;-2.050;2023-07-29T07:02:19;21.40;84.60
81935;DHT22;71405;47.674;-2.050;2023-07-29T07:04:44;21.40;84.50
81935;DHT22;71405;47.674;-2.050;2023-07-29T07:07:10;21.40;84.40
81935;DHT22;71405;47.674;-2.050;2023-07-29T07:09:36;21.40;84.80
81935;DHT22;71405;47.674;-2.050;2023-07-29T07:12:02;21.40;84.60
81935;DHT22;71405;47.674;-2.050;2023-07-29T07:14:27;21.40;83.80
81935;DHT22;71405;47.674;-2.050;2023-07-29T07:16:53;21.40;82.80
81935;DHT22;71405;47.674;-2.050;2023-07-29T07:19:19;21.40;82.80
81935;DHT22;71405;47.674;-2.050;2023-07-29T07:21:44;21.40;81.50
81935;DHT22;71405;47.674;-2.050;2023-07-29T07:24:10;21.40;81.00
81935;DHT22;71405;47.674;-2.050;2023-07-29T07:26:36;21.40;81.00
81935;DHT22;71405;47.674;-2.050;2023-07-29T07:29:02;21.40;80.70
81935;DHT22;71405;47.674;-2.050;2023-07-29T07:31:27;21.50;80.50
81935;DHT22;71405;47.674;-2.050;2023-07-29T07:33:53;21.40;80.40
81935;DHT22;71405;47.674;-2.050;2023-07-29T07:36:19;21.40;80.50
81935;DHT22;71405;47.674;-2.050;2023-07-29T07:38:44;21.40;80.20
81935;DHT22;71405;47.674;-2.050;2023-07-29T07:41:10;21.40;80.90
81935;DHT22;71405;47.674;-2.050;2023-07-29T07:43:36;21.40;80.40
81935;DHT22;71405;47.674;-2.050;2023-07-29T07:46:04;21.50;80.40
81935;DHT22;71405;47.674;-2.050;2023-07-29T07:48:30;21.50;80.40
81935;DHT22;71405;47.674;-2.050;2023-07-29T07:50:58;21.50;80.80
81935;DHT22;71405;47.674;-2.050;2023-07-29T07:53:24;21.50;80.50
81935;DHT22;71405;47.674;-2.050;2023-07-29T07:55:51;21.50;80.40
81935;DHT22;71405;47.674;-2.050;2023-07-29T07:58:16;21.50;80.50
81935;DHT22;71405;47.674;-2.050;2023-07-29T08:00:42;21.50;80.40
81935;DHT22;71405;47.674;-2.050;2023-07-29T08:03:08;21.50;80.60
81935;DHT22;71405;47.674;-2.050;2023-07-29T08:05:34;21.50;80.70
81935;DHT22;71405;47.674;-2.050;2023-07-29T08:07:59;21.50;81.10
81935;DHT22;71405;47.674;-2.050;2023-07-29T08:10:25;21.50;80.30
81935;DHT22;71405;47.674;-2.050;2023-07-29T08:12:51;21.50;80.30
81935;DHT22;71405;47.674;-2.050;2023-07-29T08:15:17;21.50;80.30
81935;DHT22;71405;47.674;-2.050;2023-07-29T08:17:42;21.50;80.50
81935;DHT22;71405;47.674;-2.050;2023-07-29T08:20:08;21.50;80.20
81935;DHT22;71405;47.674;-2.050;2023-07-29T08:22:35;21.50;80.10
81935;DHT22;71405;47.674;-2.050;2023-07-29T08:25:00;21.50;80.30
81935;DHT22;71405;47.674;-2.050;2023-07-29T08:27:26;21.50;80.40
81935;DHT22;71405;47.674;-2.050;2023-07-29T08:29:53;21.60;81.10
81935;DHT22;71405;47.674;-2.050;2023-07-29T08:32:19;21.60;81.20
81935;DHT22;71405;47.674;-2.050;2023-07-29T08:34:45;21.60;81.10
81935;DHT22;71405;47.674;-2.050;2023-07-29T08:37:10;21.60;81.50
81935;DHT22;71405;47.674;-2.050;2023-07-29T08:39:36;21.60;81.60
81935;DHT22;71405;47.674;-2.050;2023-07-29T08:42:08;21.60;81.10
81935;DHT22;71405;47.674;-2.050;2023-07-29T08:44:40;21.60;81.30
81935;DHT22;71405;47.674;-2.050;2023-07-29T08:47:06;21.60;81.50
81935;DHT22;71405;47.674;-2.050;2023-07-29T08:49:32;21.60;80.70
81935;DHT22;71405;47.674;-2.050;2023-07-29T08:51:58;21.60;80.60
81935;DHT22;71405;47.674;-2.050;2023-07-29T08:54:25;21.60;81.00
81935;DHT22;71405;47.674;-2.050;2023-07-29T08:56:51;21.60;80.90
81935;DHT22;71405;47.674;-2.050;2023-07-29T08:59:17;21.60;82.20
81935;DHT22;71405;47.674;-2.050;2023-07-29T09:01:43;21.60;82.60
81935;DHT22;71405;47.674;-2.050;2023-07-29T09:04:09;21.60;82.80
81935;DHT22;71405;47.674;-2.050;2023-07-29T09:06:35;21.60;82.30
81935;DHT22;71405;47.674;-2.050;2023-07-29T09:09:01;21.60;82.60
81935;DHT22;71405;47.674;-2.050;2023-07-29T09:11:28;21.60;82.90
81935;DHT22;71405;47.674;-2.050;2023-07-29T09:13:54;21.60;83.30
81935;DHT22;71405;47.674;-2.050;2023-07-29T09:16:20;21.60;83.00
81935;DHT22;71405;47.674;-2.050;2023-07-29T09:18:50;21.60;83.00
81935;DHT22;71405;47.674;-2.050;2023-07-29T09:21:18;21.60;82.90
81935;DHT22;71405;47.674;-2.050;2023-07-29T09:23:48;21.60;83.20
81935;DHT22;71405;47.674;-2.050;2023-07-29T09:26:25;21.60;83.30
81935;DHT22;71405;47.674;-2.050;2023-07-29T09:28:53;21.60;83.40
81935;DHT22;71405;47.674;-2.050;2023-07-29T09:31:21;21.70;83.30
81935;DHT22;71405;47.674;-2.050;2023-07-29T09:33:46;21.60;83.40
81935;DHT22;71405;47.674;-2.050;2023-07-29T09:36:12;21.70;83.70
81935;DHT22;71405;47.674;-2.050;2023-07-29T09:38:38;21.70;84.00
81935;DHT22;71405;47.674;-2.050;2023-07-29T09:41:04;21.70;83.90
81935;DHT22;71405;47.674;-2.050;2023-07-29T09:43:32;21.70;83.80
81935;DHT22;71405;47.674;-2.050;2023-07-29T09:46:02;21.70;83.90
81935;DHT22;71405;47.674;-2.050;2023-07-29T09:48:32;21.70;83.90
81935;DHT22;71405;47.674;-2.050;2023-07-29T09:50:57;21.70;83.60
81935;DHT22;71405;47.674;-2.050;2023-07-29T09:53:24;21.70;83.80
81935;DHT22;71405;47.674;-2.050;2023-07-29T09:55:50;21.70;84.20
81935;DHT22;71405;47.674;-2.050;2023-07-29T09:58:25;21.70;84.20
81935;DHT22;71405;47.674;-2.050;2023-07-29T10:00:52;21.70;84.20
81935;DHT22;71405;47.674;-2.050;2023-07-29T10:03:20;21.70;84.20
81935;DHT22;71405;47.674;-2.050;2023-07-29T10:05:46;21.70;84.10
81935;DHT22;71405;47.674;-2.050;2023-07-29T10:08:13;21.70;84.20
81935;DHT22;71405;47.674;-2.050;2023-07-29T10:10:42;21.70;84.10
81935;DHT22;71405;47.674;-2.050;2023-07-29T10:13:09;21.70;84.00
81935;DHT22;71405;47.674;-2.050;2023-07-29T10:15:36;21.70;84.30
81935;DHT22;71405;47.674;-2.050;2023-07-29T10:18:02;21.80;84.20
81935;DHT22;71405;47.674;-2.050;2023-07-29T10:20:32;21.80;84.00
81935;DHT22;71405;47.674;-2.050;2023-07-29T10:23:04;21.80;84.10
81935;DHT22;71405;47.674;-2.050;2023-07-29T10:25:40;21.80;84.10
81935;DHT22;71405;47.674;-2.050;2023-07-29T10:28:08;21.80;83.80
81935;DHT22;71405;47.674;-2.050;2023-07-29T10:30:34;21.80;83.50
81935;DHT22;71405;47.674;-2.050;2023-07-29T10:33:02;21.80;83.40
81935;DHT22;71405;47.674;-2.050;2023-07-29T10:35:29;21.80;83.30
81935;DHT22;71405;47.674;-2.050;2023-07-29T10:37:56;21.80;83.30
81935;DHT22;71405;47.674;-2.050;2023-07-29T10:40:22;21.80;83.40
81935;DHT22;71405;47.674;-2.050;2023-07-29T10:43:10;21.80;83.40
81935;DHT22;71405;47.674;-2.050;2023-07-29T10:45:38;21.90;83.10
81935;DHT22;71405;47.674;-2.050;2023-07-29T10:48:10;21.90;82.90
81935;DHT22;71405;47.674;-2.050;2023-07-29T10:50:37;21.90;82.90
81935;DHT22;71405;47.674;-2.050;2023-07-29T10:53:02;21.90;82.40
81935;DHT22;71405;47.674;-2.050;2023-07-29T10:55:35;21.90;82.40
81935;DHT22;71405;47.674;-2.050;2023-07-29T10:58:06;21.90;82.40
81935;DHT22;71405;47.674;-2.050;2023-07-29T11:00:32;21.90;82.00
81935;DHT22;71405;47.674;-2.050;2023-07-29T11:03:16;22.00;82.10
81935;DHT22;71405;47.674;-2.050;2023-07-29T11:05:47;22.00;81.90
81935;DHT22;71405;47.674;-2.050;2023-07-29T11:11:01;22.00;82.30
81935;DHT22;71405;47.674;-2.050;2023-07-29T11:13:30;22.00;82.10
81935;DHT22;71405;47.674;-2.050;2023-07-29T11:15:58;22.10;81.70
81935;DHT22;71405;47.674;-2.050;2023-07-29T11:18:31;22.10;82.00
81935;DHT22;71405;47.674;-2.050;2023-07-29T11:20:58;22.10;82.00
81935;DHT22;71405;47.674;-2.050;2023-07-29T11:23:37;22.20;81.50
81935;DHT22;71405;47.674;-2.050;2023-07-29T11:26:04;22.20;81.40
81935;DHT22;71405;47.674;-2.050;2023-07-29T11:28:30;22.20;81.30
81935;DHT22;71405;47.674;-2.050;2023-07-29T11:30:57;22.20;81.10
81935;DHT22;71405;47.674;-2.050;2023-07-29T11:33:27;22.20;81.00
81935;DHT22;71405;47.674;-2.050;2023-07-29T11:35:54;22.20;81.20
81935;DHT22;71405;47.674;-2.050;2023-07-29T11:38:21;22.20;81.50
81935;DHT22;71405;47.674;-2.050;2023-07-29T11:41:01;22.30;81.90
81935;DHT22;71405;47.674;-2.050;2023-07-29T11:43:28;22.30;82.00
81935;DHT22;71405;47.674;-2.050;2023-07-29T11:45:54;22.30;82.20
81935;DHT22;71405;47.674;-2.050;2023-07-29T11:48:33;22.30;82.50
81935;DHT22;71405;47.674;-2.050;2023-07-29T11:50:59;22.30;82.10
81935;DHT22;71405;47.674;-2.050;2023-07-29T11:53:30;22.30;82.30
81935;DHT22;71405;47.674;-2.050;2023-07-29T11:55:57;22.30;82.40
81935;DHT22;71405;47.674;-2.050;2023-07-29T11:58:23;22.40;82.40
81935;DHT22;71405;47.674;-2.050;2023-07-29T12:00:49;22.40;82.20
81935;DHT22;71405;47.674;-2.050;2023-07-29T12:03:16;22.40;81.70
81935;DHT22;71405;47.674;-2.050;2023-07-29T12:05:43;22.40;81.40
81935;DHT22;71405;47.674;-2.050;2023-07-29T12:08:09;22.40;81.80
81935;DHT22;71405;47.674;-2.050;2023-07-29T12:10:36;22.40;81.90
81935;DHT22;71405;47.674;-2.050;2023-07-29T12:13:02;22.50;80.50
81935;DHT22;71405;47.674;-2.050;2023-07-29T12:15:29;22.50;81.60
81935;DHT22;71405;47.674;-2.050;2023-07-29T12:17:56;22.50;81.50
81935;DHT22;71405;47.674;-2.050;2023-07-29T12:20:23;22.60;81.60
81935;DHT22;71405;47.674;-2.050;2023-07-29T12:22:56;22.60;81.50
81935;DHT22;71405;47.674;-2.050;2023-07-29T12:25:22;22.60;81.30
81935;DHT22;71405;47.674;-2.050;2023-07-29T12:27:48;22.60;81.40
81935;DHT22;71405;47.674;-2.050;2023-07-29T12:30:14;22.60;81.60
81935;DHT22;71405;47.674;-2.050;2023-07-29T12:32:44;22.60;81.40
81935;DHT22;71405;47.674;-2.050;2023-07-29T12:35:10;22.70;81.80
81935;DHT22;71405;47.674;-2.050;2023-07-29T12:37:35;22.70;81.80
81935;DHT22;71405;47.674;-2.050;2023-07-29T12:40:02;22.70;81.80
81935;DHT22;71405;47.674;-2.050;2023-07-29T12:42:28;22.70;81.80
81935;DHT22;71405;47.674;-2.050;2023-07-29T12:44:53;22.80;81.30
81935;DHT22;71405;47.674;-2.050;2023-07-29T12:47:19;22.80;81.70
81935;DHT22;71405;47.674;-2.050;2023-07-29T12:49:44;22.80;81.60
81935;DHT22;71405;47.674;-2.050;2023-07-29T12:52:10;22.80;81.70
81935;DHT22;71405;47.674;-2.050;2023-07-29T12:54:36;22.90;81.10
81935;DHT22;71405;47.674;-2.050;2023-07-29T12:57:01;22.90;80.90
81935;DHT22;71405;47.674;-2.050;2023-07-29T12:59:27;22.90;80.90
81935;DHT22;71405;47.674;-2.050;2023-07-29T13:01:53;22.90;81.10
81935;DHT22;71405;47.674;-2.050;2023-07-29T13:04:18;22.90;80.50
81935;DHT22;71405;47.674;-2.050;2023-07-29T13:06:44;22.90;80.20
81935;DHT22;71405;47.674;-2.050;2023-07-29T13:09:09;22.90;80.20
81935;DHT22;71405;47.674;-2.050;2023-07-29T13:11:35;22.90;80.50
81935;DHT22;71405;47.674;-2.050;2023-07-29T13:14:01;23.00;80.80
81935;DHT22;71405;47.674;-2.050;2023-07-29T13:16:28;22.90;80.90
81935;DHT22;71405;47.674;-2.050;2023-07-29T13:18:54;23.00;80.50
81935;DHT22;71405;47.674;-2.050;2023-07-29T13:21:19;22.90;80.70
81935;DHT22;71405;47.674;-2.050;2023-07-29T13:23:45;23.00;80.50
81935;DHT22;71405;47.674;-2.050;2023-07-29T13:26:11;23.00;80.60
81935;DHT22;71405;47.674;-2.050;2023-07-29T13:28:36;23.00;79.20
81935;DHT22;71405;47.674;-2.050;2023-07-29T13:31:02;23.00;77.50
81935;DHT22;71405;47.674;-2.050;2023-07-29T13:33:28;23.00;77.80
81935;DHT22;71405;47.674;-2.050;2023-07-29T13:35:59;23.00;77.80
81935;DHT22;71405;47.674;-2.050;2023-07-29T13:38:25;23.00;76.90
81935;DHT22;71405;47.674;-2.050;2023-07-29T13:40:51;23.00;75.60
81935;DHT22;71405;47.674;-2.050;2023-07-29T13:43:16;23.00;76.40
81935;DHT22;71405;47.674;-2.050;2023-07-29T13:45:42;23.00;78.10
81935;DHT22;71405;47.674;-2.050;2023-07-29T13:48:08;23.10;77.60
81935;DHT22;71405;47.674;-2.050;2023-07-29T13:50:33;23.10;77.40
81935;DHT22;71405;47.674;-2.050;2023-07-29T13:52:59;23.10;78.50
81935;DHT22;71405;47.674;-2.050;2023-07-29T13:55:25;23.10;78.60
81935;DHT22;71405;47.674;-2.050;2023-07-29T13:57:51;23.10;79.00
81935;DHT22;71405;47.674;-2.050;2023-07-29T14:00:17;23.20;78.20
81935;DHT22;71405;47.674;-2.050;2023-07-29T14:02:43;23.20;78.50
81935;DHT22;71405;47.674;-2.050;2023-07-29T14:05:09;23.20;78.20
81935;DHT22;71405;47.674;-2.050;2023-07-29T14:07:34;23.20;78.50
81935;DHT22;71405;47.674;-2.050;2023-07-29T14:10:00;23.30;78.90
81935;DHT22;71405;47.674;-2.050;2023-07-29T14:12:26;23.30;79.20
81935;DHT22;71405;47.674;-2.050;2023-07-29T14:14:51;23.30;79.00
81935;DHT22;71405;47.674;-2.050;2023-07-29T14:17:17;23.30;79.40
81935;DHT22;71405;47.674;-2.050;2023-07-29T14:19:42;23.30;79.40
81935;DHT22;71405;47.674;-2.050;2023-07-29T14:22:08;23.30;79.50
81935;DHT22;71405;47.674;-2.050;2023-07-29T14:24:34;23.40;79.50
81935;DHT22;71405;47.674;-2.050;2023-07-29T14:26:59;23.40;79.30
81935;DHT22;71405;47.674;-2.050;2023-07-29T14:29:25;23.40;79.40
81935;DHT22;71405;47.674;-2.050;2023-07-29T14:31:51;23.50;79.20
81935;DHT22;71405;47.674;-2.050;2023-07-29T14:34:17;23.60;78.80
81935;DHT22;71405;47.674;-2.050;2023-07-29T14:36:42;23.60;79.00
81935;DHT22;71405;47.674;-2.050;2023-07-29T14:39:08;23.60;79.30
81935;DHT22;71405;47.674;-2.050;2023-07-29T14:41:33;23.60;79.30
81935;DHT22;71405;47.674;-2.050;2023-07-29T14:44:00;23.70;79.00
81935;DHT22;71405;47.674;-2.050;2023-07-29T14:46:25;23.70;79.10
81935;DHT22;71405;47.674;-2.050;2023-07-29T14:48:51;23.70;78.90
81935;DHT22;71405;47.674;-2.050;2023-07-29T14:51:16;23.70;78.90
81935;DHT22;71405;47.674;-2.050;2023-07-29T14:53:42;23.70;79.10
81935;DHT22;71405;47.674;-2.050;2023-07-29T14:56:08;23.70;78.90
81935;DHT22;71405;47.674;-2.050;2023-07-29T14:58:34;23.80;78.90
81935;DHT22;71405;47.674;-2.050;2023-07-29T15:01:00;23.80;78.30
81935;DHT22;71405;47.674;-2.050;2023-07-29T15:03:25;23.90;78.70
81935;DHT22;71405;47.674;-2.050;2023-07-29T15:05:51;23.90;78.40
81935;DHT22;71405;47.674;-2.050;2023-07-29T15:08:17;23.90;78.70
81935;DHT22;71405;47.674;-2.050;2023-07-29T15:10:47;23.90;78.60
81935;DHT22;71405;47.674;-2.050;2023-07-29T15:13:14;23.90;78.40
81935;DHT22;71405;47.674;-2.050;2023-07-29T15:15:43;24.00;78.30
81935;DHT22;71405;47.674;-2.050;2023-07-29T15:18:09;24.00;78.10